Time;durP1;ratioP1;P1;durP2;ratioP2;P2;SDS_P1;SDS_P2;PMS_P1;PMS_P2;Temp;Humidity;BMP_temperature;BMP_pressure;BME280_temperature;BME280_humidity;BME280_pressure;Samples;Min_cycle;Max_cycle;Signal;HPM_P1;HPM_P2
2023/01/02 00:01:31;;;;;;;1.70;0.80;;;;;;;6.87;78.58;98544.22;4899144;29;20082;-78
2023/01/02 00:03:57;;;;;;;1.40;1.13;;;;;;;6.77;77.86;98551.25;4916027;29;20076;-76
2023/01/02 00:06:25;;;;;;;2.70;1.08;;;;;;;6.70;78.54;98539.28;4899330;29;20062;-78
2023/01/02 00:08:56;;;;;;;2.00;1.50;;;;;;;6.79;78.86;98559.84;4905872;29;20103;-76
2023/01/02 00:11:22;;;;;;;2.15;1.70;;;;;;;6.60;77.82;98556.66;4935980;29;20135;-75
2023/01/02 00:13:48;;;;;;;3.67;1.50;;;;;;;6.52;77.81;98569.66;4934883;29;20191;-79
2023/01/02 00:16:14;;;;;;;1.50;1.13;;;;;;;6.43;77.92;98573.19;4902032;29;20047;-75
2023/01/02 00:18:40;;;;;;;1.00;0.90;;;;;;;6.29;78.06;98559.59;4917819;29;20040;-79
2023/01/02 00:21:09;;;;;;;1.10;0.90;;;;;;;6.25;77.61;98592.38;4917742;29;20078;-76
2023/01/02 00:23:38;;;;;;;0.80;0.68;;;;;;;6.20;77.68;98591.56;4902623;29;20043;-77
2023/01/02 00:26:08;;;;;;;0.63;0.50;;;;;;;6.16;77.35;98626.03;4917649;29;20090;-76
2023/01/02 00:28:37;;;;;;;0.60;0.50;;;;;;;6.01;77.27;98635.63;4917931;29;20070;-76
2023/01/02 00:31:08;;;;;;;0.73;0.60;;;;;;;5.88;77.05;98647.78;4901763;29;20496;-78
2023/01/02 00:33:36;;;;;;;0.50;0.50;;;;;;;5.71;76.97;98626.41;4917251;29;20071;-74
2023/01/02 00:36:07;;;;;;;0.80;0.60;;;;;;;5.69;77.02;98633.28;4901014;29;20054;-77
2023/01/02 00:38:34;;;;;;;0.80;0.68;;;;;;;5.75;76.65;98663.38;4917525;29;20054;-78
2023/01/02 00:41:01;;;;;;;1.38;0.60;;;;;;;5.60;76.67;98672.94;4917396;29;20036;-76
2023/01/02 00:43:28;;;;;;;0.70;0.63;;;;;;;5.41;76.36;98672.19;4934734;29;20063;-78
2023/01/02 00:45:54;;;;;;;0.80;0.80;;;;;;;5.25;75.71;98671.41;4934286;29;20043;-77
2023/01/02 00:48:21;;;;;;;0.60;0.60;;;;;;;5.25;76.56;98699.78;4934726;29;20421;-77
2023/01/02 00:50:47;;;;;;;1.30;0.70;;;;;;;5.26;76.59;98719.56;4934237;29;20067;-78
2023/01/02 00:53:14;;;;;;;0.70;0.60;;;;;;;5.30;76.43;98713.53;4933452;29;20059;-77
2023/01/02 00:55:40;;;;;;;1.33;0.73;;;;;;;5.18;75.81;98726.50;4916803;29;20106;-76
2023/01/02 00:58:06;;;;;;;0.90;0.80;;;;;;;5.19;76.30;98751.38;4901654;29;20047;-76
2023/01/02 01:00:32;;;;;;;0.70;0.70;;;;;;;5.16;75.93;98765.16;4934147;29;20040;-76
2023/01/02 01:02:59;;;;;;;0.80;0.63;;;;;;;5.15;76.20;98770.34;4934435;29;20090;-76
2023/01/02 01:05:26;;;;;;;0.82;0.68;;;;;;;5.15;76.14;98772.91;4901320;29;20055;-76
2023/01/02 01:07:54;;;;;;;1.50;0.90;;;;;;;5.11;76.24;98765.19;4928454;29;20616;-76
2023/01/02 01:10:21;;;;;;;0.80;0.65;;;;;;;5.11;76.23;98778.09;4914753;29;20495;-76
2023/01/02 01:12:48;;;;;;;0.68;0.68;;;;;;;4.93;75.58;98771.25;4882611;29;20142;-76
2023/01/02 01:15:14;;;;;;;0.73;0.70;;;;;;;4.93;75.59;98767.81;4898282;29;20184;-77
2023/01/02 01:17:40;;;;;;;0.95;0.80;;;;;;;4.95;75.35;98802.19;4882584;29;20146;-77
2023/01/02 01:20:06;;;;;;;0.75;0.68;;;;;;;4.77;75.45;98796.19;4882634;29;20115;-77
2023/01/02 01:22:32;;;;;;;0.70;0.70;;;;;;;4.78;74.91;98786.75;4898042;29;20048;-78
2023/01/02 01:24:59;;;;;;;0.73;0.60;;;;;;;4.83;75.31;98809.06;4906350;29;20047;-78
2023/01/02 01:27:25;;;;;;;0.60;0.60;;;;;;;4.74;74.55;98814.25;4898175;29;20048;-77
2023/01/02 01:29:51;;;;;;;1.25;0.70;;;;;;;4.74;75.07;98822.00;4914840;29;20052;-77
2023/01/02 01:32:17;;;;;;;0.60;0.60;;;;;;;4.74;74.64;98828.84;4898061;29;20044;-77
2023/01/02 01:34:44;;;;;;;0.60;0.60;;;;;;;4.51;75.38;98789.38;4915201;29;20055;-78
2023/01/02 01:37:11;;;;;;;0.80;0.80;;;;;;;4.67;75.06;98820.28;4882651;29;20039;-76
2023/01/02 01:39:37;;;;;;;1.27;0.90;;;;;;;4.52;74.60;98809.09;4898021;29;20048;-75
2023/01/02 01:42:03;;;;;;;1.13;1.02;;;;;;;4.71;74.84;98827.16;4898338;29;20100;-76
2023/01/02 01:44:50;;;;;;;2.10;0.95;;;;;;;4.72;74.28;98846.91;4882636;29;20077;-77
2023/01/02 01:47:25;;;;;;;1.23;1.02;;;;;;;4.73;74.36;98853.78;4901386;29;20134;-76
2023/01/02 01:50:09;;;;;;;1.17;1.08;;;;;;;4.55;74.47;98812.53;4918289;29;20047;-76
2023/01/02 01:52:41;;;;;;;1.30;1.20;;;;;;;4.63;74.05;98844.31;4918082;29;20059;-78
2023/01/02 01:55:18;;;;;;;2.38;1.20;;;;;;;4.73;74.14;98876.97;4918995;29;20066;-77
2023/01/02 01:57:58;;;;;;;1.58;1.05;;;;;;;4.53;73.53;98862.34;4918384;29;20044;-78
2023/01/02 02:00:23;;;;;;;1.38;1.00;;;;;;;4.46;74.12;98875.22;4901474;29;20398;-78
2023/01/02 02:02:55;;;;;;;0.73;0.73;;;;;;;4.43;74.30;98901.84;4885771;29;20175;-75
2023/01/02 02:05:24;;;;;;;1.08;0.80;;;;;;;4.40;73.76;98895.84;4918664;29;20055;-77
2023/01/02 02:08:12;;;;;;;1.30;0.75;;;;;;;4.34;73.46;98891.53;4923145;29;20604;-76
2023/01/02 02:10:39;;;;;;;0.70;0.70;;;;;;;4.33;74.05;98915.56;4919676;29;20044;-77
2023/01/02 02:13:05;;;;;;;0.60;0.60;;;;;;;4.16;73.17;98903.50;4920183;29;20505;-78
2023/01/02 02:15:57;;;;;;;0.45;0.45;;;;;;;4.17;73.34;98930.97;4920246;29;20048;-79
2023/01/02 02:18:49;;;;;;;0.50;0.50;;;;;;;4.12;73.75;98932.66;4937417;29;20049;-77
2023/01/02 02:21:36;;;;;;;1.33;0.73;;;;;;;4.03;73.49;98928.34;4907537;29;20151;-78
2023/01/02 02:24:44;;;;;;;0.60;0.52;;;;;;;4.14;73.10;98946.41;4941356;29;20190;-75
2023/01/02 02:27:22;;;;;;;0.85;0.50;;;;;;;4.12;73.32;98945.53;4926888;29;20085;-77
2023/01/02 02:30:09;;;;;;;0.63;0.60;;;;;;;4.11;72.74;98956.69;4926652;29;20075;-78
2023/01/02 02:32:56;;;;;;;0.40;0.40;;;;;;;4.12;73.20;98978.19;4938945;29;20130;-78
2023/01/02 02:35:37;;;;;;;0.60;0.60;;;;;;;4.07;72.37;98983.31;4920704;29;20134;-75
2023/01/02 02:38:41;;;;;;;0.50;0.40;;;;;;;4.10;73.58;98985.88;4906208;29;20422;-78
2023/01/02 02:41:26;;;;;;;0.73;0.60;;;;;;;4.13;72.88;98987.63;4908429;29;20043;-77
2023/01/02 02:44:14;;;;;;;0.57;0.50;;;;;;;4.16;73.24;98996.22;4936872;29;20043;-77
2023/01/02 02:46:41;;;;;;;0.52;0.52;;;;;;;4.22;73.22;99010.81;4919592;29;20191;-77
2023/01/02 02:49:20;;;;;;;0.70;0.70;;;;;;;4.08;72.88;99000.47;4919904;29;20134;-79
2023/01/02 02:51:46;;;;;;;1.85;0.45;;;;;;;4.11;71.95;99026.22;4936999;29;20066;-76
2023/01/02 02:54:19;;;;;;;0.65;0.50;;;;;;;4.06;72.81;99033.09;4921502;29;20036;-76
2023/01/02 02:56:47;;;;;;;0.40;0.40;;;;;;;3.84;72.66;99004.66;4920482;29;20051;-75
2023/01/02 02:59:14;;;;;;;0.70;0.50;;;;;;;3.97;72.07;99039.03;4940125;29;20031;-78
2023/01/02 03:01:40;;;;;;;0.30;0.30;;;;;;;3.99;71.97;99054.50;4932558;29;20035;-76
2023/01/02 03:04:21;;;;;;;0.30;0.30;;;;;;;3.79;71.89;99049.19;4926165;29;20099;-76
2023/01/02 03:07:05;;;;;;;0.60;0.40;;;;;;;3.92;71.34;99075.03;4938114;29;20039;-76
2023/01/02 03:10:04;;;;;;;1.05;0.30;;;;;;;3.86;71.50;99087.84;4929950;29;20048;-76
2023/01/02 03:12:45;;;;;;;0.40;0.30;;;;;;;3.89;71.75;99100.75;4925989;29;20059;-77
2023/01/02 03:15:32;;;;;;;0.20;0.20;;;;;;;3.94;71.12;99100.81;4902906;29;20058;-76
2023/01/02 03:18:26;;;;;;;0.40;0.40;;;;;;;3.99;71.95;99105.97;4938631;29;20039;-75
2023/01/02 03:21:14;;;;;;;0.22;0.22;;;;;;;3.92;70.96;99097.34;4922144;29;20076;-75
2023/01/02 03:23:44;;;;;;;0.57;0.30;;;;;;;3.84;71.53;99107.59;4915977;29;20043;-77
2023/01/02 03:26:14;;;;;;;3.58;0.30;;;;;;;3.74;71.18;99127.25;4919311;29;20048;-75
2023/01/02 03:28:43;;;;;;;0.45;0.40;;;;;;;3.60;70.76;99116.84;4917615;29;20048;-78
2023/01/02 03:31:17;;;;;;;0.30;0.30;;;;;;;3.60;70.90;99134.00;4885800;29;20426;-79
2023/01/02 03:33:51;;;;;;;0.90;0.28;;;;;;;3.36;70.87;99117.47;4885710;29;20092;-76
2023/01/02 03:36:22;;;;;;;0.43;0.25;;;;;;;3.53;71.33;99150.25;4918212;29;20163;-76
2023/01/02 03:38:59;;;;;;;0.30;0.30;;;;;;;3.56;71.23;99163.97;4885003;29;20044;-77
2023/01/02 03:41:31;;;;;;;0.38;0.30;;;;;;;3.52;70.90;99169.94;4900316;29;20466;-78
2023/01/02 03:43:59;;;;;;;2.67;0.47;;;;;;;3.28;70.54;99156.00;4916960;29;20068;-75
2023/01/02 03:46:31;;;;;;;0.52;0.43;;;;;;;3.26;70.94;99172.25;4884129;29;20048;-78
2023/01/02 03:49:05;;;;;;;0.30;0.30;;;;;;;3.14;70.57;99186.69;4916998;29;20059;-76
2023/01/02 03:51:33;;;;;;;0.77;0.57;;;;;;;2.88;70.66;99160.69;4899598;29;20135;-78
2023/01/02 03:54:00;;;;;;;0.40;0.40;;;;;;;2.96;70.21;99189.03;4906019;29;20056;-76
2023/01/02 03:56:43;;;;;;;0.65;0.50;;;;;;;2.57;70.75;99160.28;4900258;29;20055;-77
2023/01/02 03:59:51;;;;;;;0.82;0.40;;;;;;;2.77;70.78;99205.94;4899799;29;20040;-75
2023/01/02 04:02:23;;;;;;;1.42;0.30;;;;;;;2.78;70.85;99215.38;4898390;29;20230;-77
2023/01/02 04:04:52;;;;;;;;;;;;;;;2.70;70.19;99211.00;4899726;29;20040;-77
2023/01/02 04:07:34;;;;;;;0.70;0.40;;;;;;;2.63;70.75;99214.31;4916474;29;19985;-76
2023/01/02 04:10:01;;;;;;;0.40;0.35;;;;;;;2.43;70.64;99206.31;4935065;29;20071;-76
2023/01/02 04:12:32;;;;;;;0.40;0.40;;;;;;;2.30;70.37;99209.56;4902429;29;20535;-77
2023/01/02 04:15:02;;;;;;;0.57;0.50;;;;;;;2.41;70.58;99233.72;4902180;29;20146;-76
2023/01/02 04:17:34;;;;;;;0.40;0.40;;;;;;;2.35;70.55;99236.19;4917671;29;20139;-77
2023/01/02 04:20:05;;;;;;;0.30;0.30;;;;;;;2.23;70.68;99232.56;4918053;29;20035;-77
2023/01/02 04:22:38;;;;;;;0.40;0.40;;;;;;;2.11;70.65;99225.53;4917891;29;20095;-77
2023/01/02 04:25:13;;;;;;;0.32;0.32;;;;;;;2.17;70.68;99242.75;4917790;29;20044;-77
2023/01/02 04:27:45;;;;;;;0.68;0.50;;;;;;;2.13;70.74;99246.13;4934476;29;20051;-76
2023/01/02 04:30:11;;;;;;;0.63;0.43;;;;;;;2.13;70.76;99252.94;4934218;29;20074;-78
2023/01/02 04:32:41;;;;;;;1.05;0.60;;;;;;;2.00;70.16;99252.75;4934175;29;20509;-76
2023/01/02 04:35:10;;;;;;;1.60;0.55;;;;;;;2.01;70.30;99257.03;4917989;29;20139;-76
2023/01/02 04:37:40;;;;;;;0.52;0.50;;;;;;;2.02;70.62;99269.03;4934785;29;20078;-76
2023/01/02 04:40:14;;;;;;;0.40;0.40;;;;;;;1.98;70.70;99274.94;4918381;29;20147;-79
2023/01/02 04:42:44;;;;;;;1.20;0.60;;;;;;;1.96;70.39;99281.75;4935048;29;20071;-76
2023/01/02 04:45:10;;;;;;;1.38;0.60;;;;;;;1.91;70.19;99267.97;4934571;29;20082;-76
2023/01/02 04:47:37;;;;;;;1.40;0.47;;;;;;;1.95;70.34;99285.16;4934611;29;20043;-76
2023/01/02 04:50:05;;;;;;;1.13;0.60;;;;;;;1.88;70.32;99281.63;4934030;29;20493;-77
2023/01/02 04:52:31;;;;;;;0.60;0.50;;;;;;;1.87;70.73;99294.44;4917405;29;20078;-76
2023/01/02 04:54:57;;;;;;;1.30;0.60;;;;;;;1.86;70.55;99295.28;4917404;29;20425;-77
2023/01/02 04:57:23;;;;;;;0.50;0.50;;;;;;;1.83;70.26;99297.78;4934066;29;20040;-76
2023/01/02 04:59:49;;;;;;;0.57;0.35;;;;;;;1.70;70.24;99292.41;4934358;29;20043;-77
2023/01/02 05:02:15;;;;;;;0.57;0.38;;;;;;;1.77;70.16;99306.19;4918002;29;20043;-76
2023/01/02 05:04:41;;;;;;;0.52;0.50;;;;;;;1.76;70.41;99318.19;4917444;29;20134;-77
2023/01/02 05:07:07;;;;;;;0.40;0.40;;;;;;;1.75;70.82;99319.00;4917980;29;20044;-77
2023/01/02 05:09:33;;;;;;;1.20;0.40;;;;;;;1.59;70.62;99315.28;4908256;29;20043;-78
2023/01/02 05:11:59;;;;;;;0.65;0.50;;;;;;;1.67;70.58;99322.25;4898681;29;20359;-76
2023/01/02 05:14:26;;;;;;;1.98;0.73;;;;;;;1.58;70.50;99330.66;4915283;29;20080;-76
2023/01/02 05:16:52;;;;;;;1.60;0.77;;;;;;;1.69;70.41;99349.66;4898079;29;20051;-76
2023/01/02 05:19:18;;;;;;;1.02;0.40;;;;;;;1.56;70.77;99340.00;4914966;29;20079;-76
2023/01/02 05:24:28;;;;;;;0.40;0.40;;;;;;;1.64;70.40;99376.94;4901764;29;20048;-75
2023/01/02 05:26:54;;;;;;;0.38;0.38;;;;;;;1.46;69.82;99352.63;4918788;29;20463;-79
2023/01/02 05:29:20;;;;;;;0.30;0.30;;;;;;;1.37;70.38;99334.50;4902138;29;20095;-76
2023/01/02 05:31:46;;;;;;;1.20;0.40;;;;;;;1.54;70.21;99386.16;4902024;29;20058;-77
2023/01/02 05:34:15;;;;;;;2.88;0.70;;;;;;;1.52;70.14;99389.50;4918809;29;20123;-77
2023/01/02 05:36:41;;;;;;;0.98;0.70;;;;;;;1.52;70.05;99410.03;4901955;29;20096;-77
2023/01/02 05:39:12;;;;;;;0.65;0.38;;;;;;;1.45;70.61;99396.19;4901350;29;20132;-76
2023/01/02 05:41:38;;;;;;;1.27;0.65;;;;;;;1.30;70.12;99386.47;4901734;29;20047;-78
2023/01/02 05:44:07;;;;;;;1.35;0.50;;;;;;;1.48;69.75;99427.06;4918214;29;20071;-77
2023/01/02 05:46:34;;;;;;;0.75;0.75;;;;;;;1.43;70.29;99413.25;4918154;29;20044;-77
2023/01/02 05:49:03;;;;;;;1.55;0.57;;;;;;;1.46;70.02;99423.59;4901315;29;20036;-78
2023/01/02 05:51:29;;;;;;;1.08;0.50;;;;;;;1.37;69.87;99411.44;4901097;29;20131;-77
2023/01/02 05:53:55;;;;;;;0.93;0.45;;;;;;;1.42;69.80;99427.78;4918334;29;20063;-77
2023/01/02 05:56:21;;;;;;;1.33;0.65;;;;;;;1.31;69.68;99427.56;4918939;29;20040;-77
2023/01/02 05:58:49;;;;;;;0.60;0.55;;;;;;;1.41;69.99;99446.56;4918214;29;20044;-78
2023/01/02 06:01:27;;;;;;;0.82;0.50;;;;;;;1.42;69.47;99450.88;4901558;29;20094;-77
2023/01/02 06:03:57;;;;;;;0.98;0.50;;;;;;;1.43;69.76;99450.03;4885877;29;20048;-77
2023/01/02 06:06:35;;;;;;;0.65;0.40;;;;;;;1.58;69.54;99443.50;4919305;29;20059;-77
2023/01/02 06:09:02;;;;;;;1.63;0.65;;;;;;;2.20;70.00;99455.91;4900227;29;20532;-76
2023/01/02 06:11:32;;;;;;;1.77;0.60;;;;;;;2.81;69.02;99450.16;4903771;29;20051;-77
2023/01/02 06:13:58;;;;;;;0.75;0.40;;;;;;;3.67;68.81;99472.00;4937506;29;20067;-76
2023/01/02 06:16:24;;;;;;;1.13;0.40;;;;;;;4.13;68.38;99428.81;4937038;29;20043;-77
2023/01/02 06:18:50;;;;;;;3.17;0.60;;;;;;;5.03;67.43;99473.53;4920350;29;20039;-77
2023/01/02 06:21:19;;;;;;;1.40;0.50;;;;;;;5.53;67.37;99442.91;4920211;29;20533;-77
2023/01/02 06:23:46;;;;;;;0.50;0.50;;;;;;;6.31;66.24;99486.34;4946369;29;20051;-76
2023/01/02 06:26:15;;;;;;;1.52;0.47;;;;;;;6.75;64.69;99464.06;4904364;29;20054;-78
2023/01/02 06:28:42;;;;;;;1.42;0.40;;;;;;;7.48;64.35;99486.50;4919554;29;20039;-76
2023/01/02 06:31:14;;;;;;;1.05;0.50;;;;;;;8.16;63.44;99475.97;4936379;29;20148;-77
2023/01/02 06:33:40;;;;;;;2.88;0.73;;;;;;;8.82;62.00;99486.88;4934387;29;20046;-76
